Aviation Digital Data Service (ADDS)

Output produced by METARs form (1816 UTC 21 September 2019)
found at http://aviationweather.gov/metar/data/
 
KAEX 211753Z 13006KT 10SM SCT037 30/21 A3012 RMK AO2 SLP202 T03000211 10306 20211 58010
KAEX 211737Z 2118/2218 13008KT P6SM SCT030 BKN050 
     FM212000 13006KT P6SM VCSH SCT050 
     FM220200 13005KT P6SM SCT250 
     FM221400 14009KT P6SM FEW025